createdAt,value
2018-07-06T14:14:51.790Z,2.33
2018-07-06T14:17:19.946Z,2.20
2018-07-06T14:19:48.116Z,2.47
2018-07-06T14:22:16.310Z,2.20
2018-07-06T14:24:44.455Z,3.10
2018-07-06T14:27:12.662Z,2.73
2018-07-06T14:29:40.842Z,2.10
2018-07-06T14:32:09.058Z,1.80
2018-07-06T14:34:37.861Z,2.97
2018-07-06T14:37:05.982Z,2.42
2018-07-06T14:39:34.091Z,2.40
2018-07-06T14:42:02.194Z,2.83
2018-07-06T14:44:30.325Z,2.10
2018-07-06T14:46:58.461Z,2.23
2018-07-06T14:49:26.622Z,1.60
2018-07-06T14:51:55.006Z,2.10
2018-07-06T14:54:23.174Z,2.50
2018-07-06T14:56:51.313Z,1.90
2018-07-06T14:59:19.469Z,2.57
2018-07-06T15:01:47.586Z,1.80
2018-07-06T15:04:15.747Z,1.97
2018-07-06T15:06:43.973Z,1.90
2018-07-06T15:09:12.101Z,2.17
2018-07-06T15:11:40.290Z,1.73
2018-07-06T15:14:08.438Z,1.80
2018-07-06T15:16:36.557Z,1.60
2018-07-06T15:19:04.994Z,1.83
2018-07-06T15:21:33.174Z,1.63
2018-07-06T15:24:01.446Z,2.27
2018-07-06T15:26:29.608Z,1.80
2018-07-06T15:28:57.814Z,1.80
2018-07-06T15:31:25.993Z,2.10
2018-07-06T15:33:54.141Z,2.03
2018-07-06T15:36:22.274Z,2.50
2018-07-06T15:38:50.371Z,1.73
2018-07-06T15:41:18.494Z,1.70
2018-07-06T15:43:46.687Z,2.33
2018-07-06T15:46:14.798Z,1.60
2018-07-06T15:48:42.930Z,1.80
2018-07-06T15:51:11.058Z,2.33
2018-07-06T15:53:39.261Z,2.03
2018-07-06T15:56:07.433Z,1.93
2018-07-06T15:58:35.585Z,2.40
2018-07-06T16:01:03.745Z,2.03
2018-07-06T16:03:31.909Z,2.37
2018-07-06T16:06:00.061Z,2.07
2018-07-06T16:08:28.196Z,2.77
2018-07-06T16:10:56.416Z,2.00
2018-07-06T16:13:25.623Z,2.17
2018-07-06T16:15:53.798Z,2.72
2018-07-06T16:18:21.981Z,3.62
2018-07-06T16:20:50.185Z,2.15
2018-07-06T16:23:18.369Z,3.42
2018-07-06T16:25:46.559Z,2.75
2018-07-06T16:28:14.701Z,2.05
2018-07-06T16:30:42.841Z,1.77
2018-07-06T16:33:10.985Z,2.00
2018-07-06T16:35:39.149Z,2.53
2018-07-06T16:38:07.347Z,2.87
2018-07-06T16:40:35.512Z,3.00
2018-07-06T16:43:03.708Z,2.20
2018-07-06T16:45:31.867Z,2.43
2018-07-06T16:48:00.067Z,2.47
2018-07-06T16:50:28.208Z,2.30
2018-07-06T16:52:56.382Z,2.20
2018-07-06T16:55:24.548Z,2.43
2018-07-06T16:57:52.656Z,2.17
2018-07-06T17:00:20.958Z,3.10
2018-07-06T17:02:49.111Z,2.93
2018-07-06T17:05:17.261Z,2.80
2018-07-06T17:07:45.488Z,2.50
2018-07-06T17:10:13.684Z,1.97
2018-07-06T17:12:41.809Z,2.20
2018-07-06T17:15:09.958Z,1.80
2018-07-06T17:17:38.128Z,3.22
2018-07-06T17:20:06.386Z,2.37
2018-07-06T17:22:34.663Z,2.63
2018-07-06T17:25:03.631Z,2.63
2018-07-06T17:27:32.665Z,2.50
2018-07-06T17:30:00.956Z,3.50
2018-07-06T17:32:29.919Z,2.60
2018-07-06T17:34:58.781Z,2.50
2018-07-06T17:37:27.882Z,2.37
2018-07-06T17:39:56.816Z,2.73
2018-07-06T17:42:25.940Z,3.03
2018-07-06T17:44:54.780Z,2.77
2018-07-06T17:47:23.668Z,2.60
2018-07-06T17:49:52.625Z,2.77
2018-07-06T17:52:21.502Z,3.17
2018-07-06T17:54:50.362Z,3.30
2018-07-06T17:57:19.333Z,2.70
2018-07-06T17:59:47.928Z,2.17
2018-07-06T18:02:16.886Z,3.35
2018-07-06T18:04:45.695Z,2.55
2018-07-06T18:07:13.866Z,2.80
2018-07-06T18:09:42.035Z,2.67
2018-07-06T18:12:10.200Z,3.00
2018-07-06T18:14:39.198Z,3.55
2018-07-06T18:17:08.242Z,2.73
2018-07-06T18:19:36.437Z,2.90
2018-07-06T18:22:04.638Z,2.60
2018-07-06T18:24:32.760Z,3.33
2018-07-06T18:27:01.018Z,2.87
2018-07-06T18:29:29.348Z,2.73
2018-07-06T18:31:57.488Z,2.53
2018-07-06T18:34:25.632Z,2.53
2018-07-06T18:36:53.914Z,2.70
2018-07-06T18:39:22.134Z,3.77
2018-07-06T18:41:50.344Z,2.30
2018-07-06T18:44:18.582Z,3.00
2018-07-06T18:46:46.757Z,2.72
2018-07-06T18:49:14.958Z,3.33
2018-07-06T18:51:43.178Z,2.87
2018-07-06T18:54:11.337Z,2.58
2018-07-06T18:56:39.497Z,4.60
2018-07-06T18:59:07.710Z,2.60
2018-07-06T19:01:35.828Z,4.53
2018-07-06T19:04:03.952Z,3.63
2018-07-06T19:06:32.037Z,2.77
2018-07-06T19:09:00.164Z,3.30
2018-07-06T19:11:28.289Z,3.07
2018-07-06T19:13:56.536Z,3.30
2018-07-06T19:16:24.627Z,3.23
2018-07-06T19:18:52.756Z,3.13
2018-07-06T19:21:21.056Z,3.17
2018-07-06T19:23:49.209Z,3.03
2018-07-06T19:26:17.288Z,4.17
2018-07-06T19:28:45.431Z,3.23
2018-07-06T19:31:13.588Z,2.57
2018-07-06T19:33:41.697Z,3.80
2018-07-06T19:36:09.830Z,2.57
2018-07-06T19:38:37.983Z,3.10
2018-07-06T19:41:06.105Z,3.67
2018-07-06T19:43:34.224Z,3.30
2018-07-06T19:46:02.349Z,2.83
2018-07-06T19:48:30.521Z,3.17
2018-07-06T19:50:58.610Z,3.40
2018-07-06T19:53:26.736Z,2.87
2018-07-06T19:55:54.865Z,2.73
2018-07-06T19:58:22.991Z,3.10
2018-07-06T20:00:51.075Z,3.05
2018-07-06T20:03:19.237Z,3.95
2018-07-06T20:05:47.371Z,3.10
2018-07-06T20:08:15.532Z,4.25
2018-07-06T20:10:43.673Z,3.27
2018-07-06T20:13:11.804Z,3.53
2018-07-06T20:15:39.979Z,3.50
2018-07-06T20:18:08.070Z,3.20
2018-07-06T20:20:36.246Z,3.40
2018-07-06T20:23:04.365Z,4.00
2018-07-06T20:25:32.515Z,4.37
2018-07-06T20:28:00.649Z,4.00
2018-07-06T20:30:28.761Z,4.37
2018-07-06T20:32:56.898Z,3.47
2018-07-06T20:35:25.037Z,3.80
2018-07-06T20:37:53.188Z,4.17
2018-07-06T20:40:21.309Z,3.63
2018-07-06T20:42:49.460Z,3.90
2018-07-06T20:45:17.638Z,3.50
2018-07-06T20:47:45.746Z,3.93
2018-07-06T20:50:13.895Z,4.73
2018-07-06T20:52:42.071Z,3.80
2018-07-06T20:55:10.190Z,3.70
2018-07-06T20:57:38.321Z,4.00
2018-07-06T21:00:06.401Z,3.90
2018-07-06T21:02:34.539Z,4.20
2018-07-06T21:05:02.722Z,3.77
2018-07-06T21:07:30.825Z,4.60
2018-07-06T21:09:58.964Z,4.60
2018-07-06T21:12:27.100Z,4.43
2018-07-06T21:14:55.235Z,4.00
2018-07-06T21:17:23.410Z,5.07
2018-07-06T21:19:51.517Z,3.70
2018-07-06T21:22:19.733Z,4.07
2018-07-06T21:24:47.813Z,4.27
2018-07-06T21:27:15.908Z,4.17
2018-07-06T21:29:44.031Z,4.77
2018-07-06T21:32:12.154Z,3.70
2018-07-06T21:34:40.293Z,4.47
2018-07-06T21:37:08.445Z,4.23
2018-07-06T21:39:36.562Z,4.30
2018-07-06T21:42:04.671Z,3.73
2018-07-06T21:44:32.799Z,3.90
2018-07-06T21:47:01.031Z,4.30
2018-07-06T21:49:29.185Z,3.53
2018-07-06T21:51:57.297Z,3.77
2018-07-06T21:54:25.437Z,3.63
2018-07-06T21:56:53.544Z,3.75
2018-07-06T21:59:21.668Z,4.40
2018-07-06T22:01:49.796Z,4.47
2018-07-06T22:04:17.988Z,4.22
2018-07-06T22:06:46.098Z,3.50
2018-07-06T22:09:14.240Z,4.08
2018-07-06T22:11:42.379Z,3.90
2018-07-06T22:14:10.490Z,3.93
2018-07-06T22:16:38.593Z,4.42
2018-07-06T22:19:06.754Z,5.42
2018-07-06T22:21:34.870Z,3.70
2018-07-06T22:24:03.002Z,5.27
2018-07-06T22:26:31.135Z,3.52
2018-07-06T22:28:59.257Z,4.53
2018-07-06T22:31:27.370Z,3.90
2018-07-06T22:33:55.507Z,3.33
2018-07-06T22:36:23.616Z,4.35
2018-07-06T22:38:51.764Z,3.67
2018-07-06T22:41:19.868Z,4.50
2018-07-06T22:43:47.985Z,4.10
2018-07-06T22:46:16.111Z,3.55
2018-07-06T22:48:44.309Z,3.43
2018-07-06T22:51:12.442Z,3.30
2018-07-06T22:53:40.586Z,4.20
2018-07-06T22:56:08.698Z,3.50
2018-07-06T22:58:36.822Z,3.80
2018-07-06T23:01:04.968Z,4.65
2018-07-06T23:03:33.089Z,4.00
2018-07-06T23:06:01.215Z,3.67
2018-07-06T23:08:29.367Z,3.13
2018-07-06T23:10:57.540Z,4.27
2018-07-06T23:13:25.665Z,3.37
2018-07-06T23:15:53.799Z,4.83
2018-07-06T23:18:21.917Z,4.20
2018-07-06T23:20:50.075Z,3.80
2018-07-06T23:23:18.183Z,3.60
2018-07-06T23:25:49.296Z,3.90
2018-07-06T23:28:17.697Z,3.70
2018-07-06T23:30:45.793Z,5.87
2018-07-06T23:33:14.152Z,3.87
2018-07-06T23:35:42.278Z,4.12
2018-07-06T23:38:10.434Z,3.83
2018-07-06T23:40:38.505Z,3.67
2018-07-06T23:43:06.637Z,4.00
2018-07-06T23:45:34.816Z,3.57
2018-07-06T23:48:02.948Z,3.33
2018-07-06T23:50:32.082Z,3.60
2018-07-06T23:53:00.219Z,3.70
2018-07-06T23:55:28.336Z,3.05
2018-07-06T23:57:56.456Z,3.80
